createdAt,value
2022-12-07T00:04:25.496Z,63.29972
2022-12-07T00:09:27.132Z,62.39051
2022-12-07T00:14:28.763Z,60.86357
2022-12-07T00:19:30.359Z,61.53667
2022-12-07T00:24:32.010Z,61.77311
2022-12-07T00:29:33.681Z,64.2342
2022-12-07T00:34:35.367Z,64.23507
2022-12-07T00:39:37.641Z,60.96142
2022-12-07T00:44:39.684Z,63.0755
2022-12-07T00:49:41.299Z,62.23648
2022-12-07T00:54:42.947Z,62.23065
2022-12-07T00:59:44.560Z,62.20365
2022-12-07T01:04:46.243Z,63.7945
2022-12-07T01:09:47.815Z,63.78435
2022-12-07T01:14:49.556Z,64.28789
2022-12-07T01:19:53.088Z,64.86596
2022-12-07T01:24:54.993Z,66.10962
2022-12-07T01:29:56.730Z,65.39085
2022-12-07T01:34:58.662Z,64.56164
2022-12-07T01:40:01.453Z,65.66421
2022-12-07T01:45:03.330Z,65.05431
2022-12-07T01:50:05.039Z,66.03213
2022-12-07T01:55:06.639Z,64.3225
2022-12-07T02:00:08.287Z,63.82721
2022-12-07T02:05:09.955Z,65.7603
2022-12-07T02:10:11.737Z,65.95382
2022-12-07T02:15:13.337Z,67.43519
2022-12-07T02:20:14.941Z,67.00969
2022-12-07T02:25:16.581Z,67.7812
2022-12-07T02:30:18.431Z,67.55596
2022-12-07T02:35:20.046Z,67.2336
2022-12-07T02:40:21.724Z,67.25667
2022-12-07T02:45:23.333Z,67.05771
2022-12-07T02:50:26.499Z,66.79412
2022-12-07T02:55:28.134Z,65.79785
2022-12-07T03:00:29.774Z,66.61889
2022-12-07T03:05:31.531Z,66.64938
2022-12-07T03:10:33.131Z,65.18586
2022-12-07T03:15:34.862Z,65.88129
2022-12-07T03:20:36.753Z,65.89788
2022-12-07T03:25:38.409Z,66.21382
2022-12-07T03:30:40.125Z,67.62951
2022-12-07T03:35:41.896Z,66.5418
2022-12-07T03:40:43.525Z,64.86151
2022-12-07T03:45:45.263Z,65.92784
2022-12-07T03:50:46.861Z,67.20228
2022-12-07T03:55:48.480Z,64.64798
2022-12-07T04:00:50.357Z,65.65013
2022-12-07T04:05:51.992Z,65.75442
2022-12-07T04:10:53.911Z,65.48372
2022-12-07T04:15:55.701Z,63.38128
2022-12-07T04:20:57.367Z,63.42026
2022-12-07T04:25:59.039Z,62.02624
2022-12-07T04:31:00.705Z,64.00739
2022-12-07T04:36:02.381Z,62.94634
2022-12-07T04:41:03.959Z,65.63354
2022-12-07T04:46:05.586Z,64.5021
2022-12-07T04:51:07.206Z,64.66772
2022-12-07T04:56:08.790Z,62.43119
2022-12-07T05:01:10.463Z,62.77962
2022-12-07T05:06:13.664Z,63.34878
2022-12-07T05:11:15.580Z,63.21797
2022-12-07T05:16:17.240Z,63.91603
2022-12-07T05:21:18.872Z,63.22173
2022-12-07T05:26:20.525Z,62.88427
2022-12-07T05:31:22.191Z,61.90501
2022-12-07T05:36:23.820Z,62.95554
2022-12-07T05:41:25.421Z,61.54687
2022-12-07T05:46:27.446Z,60.72067
2022-12-07T05:51:29.359Z,63.72448
2022-12-07T05:56:30.974Z,61.66319
2022-12-07T06:01:32.775Z,62.49375
2022-12-07T06:06:34.520Z,63.17092
2022-12-07T06:11:36.152Z,62.94492
2022-12-07T06:16:37.902Z,62.12261
2022-12-07T06:21:39.561Z,62.27166
2022-12-07T06:26:41.385Z,62.12277
2022-12-07T06:31:43.059Z,62.96818
2022-12-07T06:36:44.672Z,63.05544
2022-12-07T06:41:46.274Z,63.73188
2022-12-07T06:46:47.875Z,64.86469
2022-12-07T06:51:49.490Z,64.36417
2022-12-07T06:56:51.137Z,66.27584
2022-12-07T07:01:53.055Z,63.56457
2022-12-07T07:06:59.817Z,64.52045
2022-12-07T07:12:02.186Z,64.52665
2022-12-07T07:17:03.901Z,61.25352
2022-12-07T07:22:05.514Z,60.54778
2022-12-07T07:27:07.147Z,59.25026
2022-12-07T07:32:08.800Z,60.15542
2022-12-07T07:37:10.418Z,59.63123
2022-12-07T07:42:12.056Z,60.44243
2022-12-07T07:47:13.695Z,60.70458
2022-12-07T07:52:15.412Z,61.67509
2022-12-07T07:57:17.032Z,63.89684
2022-12-07T08:02:18.627Z,64.09989
2022-12-07T08:07:20.332Z,65.66967
2022-12-07T08:12:22.003Z,65.17638
2022-12-07T08:17:23.627Z,64.21377
2022-12-07T08:22:25.217Z,64.39485
2022-12-07T08:27:26.820Z,64.53254
2022-12-07T08:32:28.451Z,65.03393
2022-12-07T08:37:30.071Z,63.15329
2022-12-07T08:42:31.736Z,64.5295
2022-12-07T08:47:33.396Z,64.30467
2022-12-07T08:52:34.981Z,64.8505
2022-12-07T08:57:36.629Z,65.94338
2022-12-07T09:02:38.379Z,65.14448
2022-12-07T09:07:40.113Z,64.88665
2022-12-07T09:12:41.748Z,65.62838
2022-12-07T09:17:43.359Z,64.62986
2022-12-07T09:22:44.980Z,65.168
2022-12-07T09:27:46.609Z,65.19182
2022-12-07T09:32:48.209Z,63.69923
2022-12-07T09:37:49.806Z,65.66099
2022-12-07T09:42:51.475Z,65.74678
2022-12-07T09:47:53.087Z,66.03598
2022-12-07T09:52:54.647Z,65.34081
2022-12-07T09:57:56.286Z,64.50965
2022-12-07T10:02:57.875Z,64.92473
2022-12-07T10:07:59.792Z,66.22302
2022-12-07T10:13:01.504Z,65.95807
2022-12-07T10:18:03.162Z,66.47236
2022-12-07T10:23:04.796Z,64.75326
2022-12-07T10:28:06.407Z,65.19028
2022-12-07T10:33:08.019Z,65.6623
2022-12-07T10:38:09.633Z,66.4136
2022-12-07T10:43:11.235Z,63.53799
2022-12-07T10:48:12.873Z,62.67378
2022-12-07T10:53:14.465Z,62.52875
2022-12-07T10:58:16.058Z,62.4341
2022-12-07T11:03:17.668Z,61.76093
2022-12-07T11:08:19.362Z,61.79757
2022-12-07T11:13:26.636Z,61.12996
2022-12-07T11:18:30.082Z,64.87704
2022-12-07T11:23:31.726Z,64.25992
2022-12-07T11:28:33.366Z,65.17222
2022-12-07T11:33:35.061Z,61.64541
2022-12-07T11:38:36.648Z,60.43048
2022-12-07T11:43:38.231Z,59.21577
2022-12-07T11:48:39.889Z,60.35571
2022-12-07T11:53:41.586Z,62.41769
2022-12-07T11:58:43.190Z,63.62957
2022-12-07T12:03:49.543Z,62.74371
2022-12-07T12:14:34.287Z,62.5448
2022-12-07T12:19:37.273Z,62.42788
2022-12-07T12:24:38.908Z,65.12693
2022-12-07T12:29:40.522Z,67.12691
2022-12-07T12:34:46.752Z,63.4877
2022-12-07T12:39:51.623Z,63.13488
2022-12-07T12:44:53.222Z,63.27504
2022-12-07T12:49:54.831Z,63.527
2022-12-07T12:54:56.429Z,62.33338
2022-12-07T12:59:58.070Z,64.89577
2022-12-07T13:04:59.792Z,65.3979
2022-12-07T13:10:01.576Z,64.43434
2022-12-07T13:15:03.393Z,64.39301
2022-12-07T13:20:05.225Z,62.86954
2022-12-07T13:25:06.887Z,63.83531
2022-12-07T13:30:08.547Z,62.85983
2022-12-07T13:35:10.133Z,62.8495
2022-12-07T13:40:11.769Z,63.36815
2022-12-07T13:45:13.368Z,60.16109
2022-12-07T13:50:14.979Z,61.64045
2022-12-07T13:55:16.584Z,62.26087
2022-12-07T14:00:18.184Z,59.80034
2022-12-07T14:05:19.775Z,62.01297
2022-12-07T14:10:21.501Z,59.74283
2022-12-07T14:15:23.149Z,62.51751
2022-12-07T14:20:24.759Z,60.49771
2022-12-07T14:25:26.336Z,60.7373
2022-12-07T14:30:28.156Z,59.02809
2022-12-07T14:35:29.830Z,59.5406
2022-12-07T14:40:31.417Z,59.49679
2022-12-07T14:45:33.020Z,61.29703
2022-12-07T14:50:34.720Z,63.34921
2022-12-07T14:55:36.534Z,62.67306
2022-12-07T15:00:38.142Z,59.95777
2022-12-07T15:05:39.887Z,57.74961
2022-12-07T15:10:41.498Z,59.26378
2022-12-07T15:15:43.152Z,56.83364
2022-12-07T15:20:44.768Z,57.60112
2022-12-07T15:25:46.609Z,58.16847
2022-12-07T15:30:48.284Z,57.99381
2022-12-07T15:35:50.031Z,58.26357
2022-12-07T15:40:51.702Z,59.77744
2022-12-07T15:45:53.507Z,61.39296
2022-12-07T15:50:55.258Z,57.8844
2022-12-07T15:55:56.947Z,59.19099
2022-12-07T16:00:58.575Z,57.81813
2022-12-07T16:06:00.143Z,58.8426
2022-12-07T16:11:01.923Z,61.89333
2022-12-07T16:16:03.666Z,60.96981
2022-12-07T16:21:05.304Z,58.69276
2022-12-07T16:26:06.923Z,57.144
2022-12-07T16:31:08.598Z,59.20798
2022-12-07T16:36:10.295Z,59.15593
2022-12-07T16:41:11.923Z,58.46706
2022-12-07T16:46:13.699Z,58.24515
2022-12-07T16:51:15.402Z,56.91771
2022-12-07T16:56:17.155Z,54.95242
2022-12-07T17:01:18.919Z,55.04145
2022-12-07T17:06:20.572Z,54.51973
2022-12-07T17:11:22.187Z,55.44566
2022-12-07T17:16:23.932Z,56.26085
2022-12-07T17:21:25.690Z,57.87732
2022-12-07T17:26:33.481Z,57.63916
2022-12-07T17:31:37.011Z,56.89894
2022-12-07T17:36:38.741Z,57.23711
2022-12-07T17:41:40.363Z,57.48569
2022-12-07T17:46:41.954Z,55.55981
2022-12-07T17:51:43.661Z,55.7546
2022-12-07T17:56:45.243Z,55.68526
2022-12-07T18:01:46.963Z,55.98863
2022-12-07T18:06:52.123Z,58.12173
2022-12-07T18:11:54.447Z,56.82062
2022-12-07T18:16:56.218Z,57.43734
2022-12-07T18:21:57.947Z,56.45914
2022-12-07T18:26:59.678Z,56.0369
2022-12-07T18:32:01.581Z,56.37895
2022-12-07T18:37:03.223Z,56.92248
2022-12-07T18:42:05.002Z,56.39831
2022-12-07T18:47:06.770Z,56.21599
2022-12-07T18:52:08.378Z,57.29101
2022-12-07T18:57:10.079Z,54.75222
2022-12-07T19:02:11.725Z,56.01259
2022-12-07T19:07:13.431Z,55.65287
2022-12-07T19:12:15.219Z,55.62003
2022-12-07T19:17:16.924Z,58.90453
2022-12-07T19:22:18.563Z,58.16032
2022-12-07T19:27:20.169Z,57.34421
2022-12-07T19:32:21.897Z,55.47496
2022-12-07T19:37:23.714Z,56.26181
2022-12-07T19:42:25.338Z,56.42378
2022-12-07T19:47:26.936Z,55.25588
2022-12-07T19:52:33.479Z,55.40965
2022-12-07T19:57:43.069Z,53.77505
2022-12-07T20:02:44.845Z,52.97341
2022-12-07T20:07:46.555Z,53.52904
2022-12-07T20:12:48.243Z,55.02941
2022-12-07T20:17:49.835Z,55.41623
2022-12-07T20:22:51.477Z,55.98133
2022-12-07T20:27:53.139Z,53.89511
2022-12-07T20:32:54.788Z,54.81166
2022-12-07T20:37:56.409Z,55.81905
2022-12-07T20:42:58.014Z,55.82752
2022-12-07T20:47:59.646Z,56.75906
2022-12-07T20:53:01.303Z,55.98981
2022-12-07T20:58:02.864Z,54.26083
2022-12-07T21:03:04.548Z,58.09623
2022-12-07T21:08:06.280Z,56.81341
2022-12-07T21:13:08.532Z,58.83
2022-12-07T21:18:10.156Z,55.42564
2022-12-07T21:23:11.929Z,56.51439
2022-12-07T21:28:13.642Z,57.445
2022-12-07T21:33:15.275Z,58.1005
2022-12-07T21:38:16.916Z,59.35307
2022-12-07T21:43:18.628Z,57.71992
2022-12-07T21:48:20.275Z,57.36963
2022-12-07T21:53:21.876Z,58.06209
2022-12-07T21:58:23.510Z,60.27879
2022-12-07T22:03:25.086Z,60.12792
2022-12-07T22:08:26.878Z,59.63669
2022-12-07T22:13:28.790Z,59.6804
2022-12-07T22:18:30.480Z,58.19631
2022-12-07T22:23:32.273Z,56.41684
2022-12-07T22:28:33.869Z,57.51668
2022-12-07T22:33:35.492Z,58.33592
2022-12-07T22:38:37.170Z,58.50904
2022-12-07T22:43:38.766Z,58.67189
2022-12-07T22:48:40.366Z,58.04267
2022-12-07T22:53:42.096Z,58.20247
2022-12-07T22:58:43.718Z,58.51085
2022-12-07T23:03:45.473Z,56.35527
2022-12-07T23:08:47.182Z,56.40948
2022-12-07T23:13:48.838Z,59.44461
2022-12-07T23:18:50.565Z,58.75233
2022-12-07T23:23:52.243Z,59.43319
2022-12-07T23:28:53.914Z,57.12263
2022-12-07T23:33:55.569Z,57.4279
2022-12-07T23:38:57.189Z,59.90405
2022-12-07T23:43:58.800Z,61.09017
2022-12-07T23:49:05.496Z,58.90445
2022-12-07T23:54:07.133Z,57.6428
2022-12-07T23:59:09.058Z,57.48939
